createdAt,value
2023-04-09T00:00:13.922Z,100.00
2023-04-09T00:02:41.729Z,100.00
2023-04-09T00:05:10.139Z,100.00
2023-04-09T00:07:37.984Z,100.00
2023-04-09T00:10:07.145Z,100.00
2023-04-09T00:12:35.483Z,100.00
2023-04-09T00:15:03.646Z,100.00
2023-04-09T00:17:31.596Z,100.00
2023-04-09T00:19:59.855Z,100.00
2023-04-09T00:22:27.826Z,100.00
2023-04-09T00:24:55.864Z,100.00
2023-04-09T00:27:24.132Z,100.00
2023-04-09T00:29:55.131Z,100.00
2023-04-09T00:32:23.018Z,100.00
2023-04-09T00:34:51.534Z,100.00
2023-04-09T00:37:19.522Z,100.00
2023-04-09T00:39:47.864Z,100.00
2023-04-09T00:42:16.787Z,100.00
2023-04-09T00:44:45.398Z,100.00
2023-04-09T00:47:13.484Z,100.00
2023-04-09T00:49:41.791Z,100.00
2023-04-09T00:52:09.743Z,100.00
2023-04-09T00:54:37.895Z,100.00
2023-04-09T00:57:06.277Z,100.00
2023-04-09T00:59:34.315Z,100.00
2023-04-09T01:02:02.419Z,100.00
2023-04-09T01:04:30.936Z,100.00
2023-04-09T01:07:23.845Z,100.00
2023-04-09T01:10:01.196Z,100.00
2023-04-09T01:12:51.253Z,100.00
2023-04-09T01:15:24.290Z,100.00
2023-04-09T01:18:16.646Z,100.00
2023-04-09T01:21:15.435Z,100.00
2023-04-09T01:24:01.984Z,100.00
2023-04-09T01:27:09.070Z,99.66
2023-04-09T01:29:46.215Z,99.26
2023-04-09T01:32:17.122Z,100.00
2023-04-09T01:34:46.749Z,100.00
2023-04-09T01:37:16.377Z,100.00
2023-04-09T01:39:44.924Z,100.00
2023-04-09T01:42:13.515Z,100.00
2023-04-09T01:44:42.266Z,100.00
2023-04-09T01:47:10.518Z,100.00
2023-04-09T01:49:39.512Z,100.00
2023-04-09T01:52:07.982Z,100.00
2023-04-09T01:54:36.118Z,100.00
2023-04-09T01:57:04.139Z,100.00
2023-04-09T01:59:32.517Z,100.00
2023-04-09T02:02:02.187Z,100.00
2023-04-09T02:04:34.859Z,100.00
2023-04-09T02:07:18.470Z,100.00
2023-04-09T02:09:48.444Z,100.00
2023-04-09T02:12:18.536Z,100.00
2023-04-09T02:14:47.387Z,100.00
2023-04-09T02:17:15.702Z,100.00
2023-04-09T02:19:46.234Z,100.00
2023-04-09T02:22:15.661Z,100.00
2023-04-09T02:24:44.292Z,100.00
2023-04-09T02:27:12.336Z,99.28
2023-04-09T02:29:41.202Z,99.83
2023-04-09T02:32:09.602Z,100.00
2023-04-09T02:34:37.457Z,100.00
2023-04-09T02:37:05.433Z,100.00
2023-04-09T02:39:33.902Z,100.00
2023-04-09T02:42:02.375Z,100.00
2023-04-09T02:44:30.367Z,100.00
2023-04-09T02:46:58.618Z,98.01
2023-04-09T02:49:26.566Z,100.00
2023-04-09T02:51:54.636Z,100.00
2023-04-09T02:54:22.975Z,100.00
2023-04-09T02:56:50.946Z,100.00
2023-04-09T02:59:18.917Z,100.00
2023-04-09T03:01:47.394Z,100.00
2023-04-09T03:04:15.684Z,100.00
2023-04-09T03:06:43.854Z,100.00
2023-04-09T03:09:12.257Z,100.00
2023-04-09T03:11:40.143Z,98.93
2023-04-09T03:14:08.647Z,99.75
2023-04-09T03:16:36.993Z,100.00
2023-04-09T03:19:05.374Z,100.00
2023-04-09T03:21:33.888Z,100.00
2023-04-09T03:24:02.477Z,100.00
2023-04-09T03:26:36.253Z,100.00
2023-04-09T03:29:05.973Z,100.00
2023-04-09T03:31:34.224Z,100.00
2023-04-09T03:34:02.234Z,100.00
2023-04-09T03:36:31.815Z,100.00
2023-04-09T03:39:00.685Z,100.00
2023-04-09T03:41:29.412Z,100.00
2023-04-09T03:43:58.475Z,100.00
2023-04-09T03:46:26.814Z,100.00
2023-04-09T03:48:55.841Z,100.00
2023-04-09T03:51:25.519Z,99.70
2023-04-09T03:53:54.077Z,99.60
2023-04-09T03:56:22.590Z,99.33
2023-04-09T03:58:51.207Z,100.00
2023-04-09T04:01:19.555Z,100.00
2023-04-09T04:03:50.203Z,100.00
2023-04-09T04:06:18.898Z,100.00
2023-04-09T04:08:47.850Z,100.00
2023-04-09T04:11:16.668Z,100.00
2023-04-09T04:13:44.738Z,100.00
2023-04-09T04:16:12.734Z,100.00
2023-04-09T04:18:41.491Z,100.00
2023-04-09T04:21:16.679Z,100.00
2023-04-09T04:23:45.098Z,100.00
2023-04-09T04:26:13.934Z,96.43
2023-04-09T04:28:42.250Z,100.00
2023-04-09T04:31:12.689Z,99.98
2023-04-09T04:33:42.676Z,100.00
2023-04-09T04:36:13.829Z,100.00
2023-04-09T04:38:42.375Z,100.00
2023-04-09T04:41:12.044Z,100.00
2023-04-09T04:43:41.720Z,100.00
2023-04-09T04:46:10.025Z,100.00
2023-04-09T04:48:38.094Z,100.00
2023-04-09T04:51:06.891Z,100.00
2023-04-09T04:53:35.314Z,100.00
2023-04-09T04:56:04.686Z,100.00
2023-04-09T04:58:32.995Z,100.00
2023-04-09T05:01:01.577Z,100.00
2023-04-09T05:03:30.139Z,100.00
2023-04-09T05:05:58.773Z,100.00
2023-04-09T05:08:28.043Z,100.00
2023-04-09T05:10:56.634Z,100.00
2023-04-09T05:13:26.873Z,100.00
2023-04-09T05:15:54.889Z,100.00
2023-04-09T05:18:22.945Z,100.00
2023-04-09T05:20:51.446Z,100.00
2023-04-09T05:23:19.616Z,100.00
2023-04-09T05:25:50.021Z,100.00
2023-04-09T05:28:18.653Z,100.00
2023-04-09T05:30:47.680Z,100.00
2023-04-09T05:33:16.244Z,100.00
2023-04-09T05:35:44.805Z,100.00
2023-04-09T05:38:13.995Z,100.00
2023-04-09T05:40:42.992Z,100.00
2023-04-09T05:43:12.315Z,100.00
2023-04-09T05:45:40.828Z,100.00
2023-04-09T05:48:09.358Z,100.00
2023-04-09T05:50:51.471Z,100.00
2023-04-09T05:53:22.720Z,100.00
2023-04-09T05:55:51.358Z,100.00
2023-04-09T05:58:20.284Z,100.00
2023-04-09T06:00:48.558Z,100.00
2023-04-09T06:03:17.131Z,100.00
2023-04-09T06:05:46.819Z,100.00
2023-04-09T06:08:14.931Z,100.00
2023-04-09T06:10:43.236Z,100.00
2023-04-09T06:13:11.441Z,100.00
2023-04-09T06:15:39.905Z,100.00
2023-04-09T06:18:08.224Z,100.00
2023-04-09T06:20:36.788Z,99.17
2023-04-09T06:23:05.634Z,99.04
2023-04-09T06:25:33.901Z,98.77
2023-04-09T06:28:01.800Z,97.82
2023-04-09T06:30:29.902Z,96.54
2023-04-09T06:32:58.178Z,96.63
2023-04-09T06:35:26.992Z,96.26
2023-04-09T06:37:54.926Z,97.55
2023-04-09T06:40:23.662Z,95.87
2023-04-09T06:42:51.820Z,96.49
2023-04-09T06:45:21.038Z,94.37
2023-04-09T06:47:49.764Z,94.64
2023-04-09T06:50:17.808Z,96.09
2023-04-09T06:52:45.774Z,95.01
2023-04-09T06:55:14.435Z,92.47
2023-04-09T06:57:42.372Z,89.71
2023-04-09T07:00:11.057Z,91.84
2023-04-09T07:02:39.751Z,89.18
2023-04-09T07:05:08.165Z,88.99
2023-04-09T07:07:36.428Z,89.62
2023-04-09T07:10:06.489Z,89.42
2023-04-09T07:12:35.809Z,92.66
2023-04-09T07:15:05.973Z,88.63
2023-04-09T07:17:35.040Z,89.20
2023-04-09T07:20:03.294Z,85.75
2023-04-09T07:22:31.405Z,85.13
2023-04-09T07:24:59.720Z,86.51
2023-04-09T07:27:28.970Z,82.30
2023-04-09T07:29:58.399Z,83.47
2023-04-09T07:32:28.553Z,83.38
2023-04-09T07:34:57.582Z,82.25
2023-04-09T07:37:26.356Z,81.14
2023-04-09T07:39:54.909Z,80.97
2023-04-09T07:42:23.219Z,80.33
2023-04-09T07:44:51.706Z,82.58
2023-04-09T07:47:20.003Z,74.85
2023-04-09T07:49:47.997Z,76.49
2023-04-09T07:52:16.136Z,75.31
2023-04-09T07:54:44.829Z,69.61
2023-04-09T07:57:12.904Z,72.45
2023-04-09T07:59:40.914Z,70.94
2023-04-09T08:02:09.640Z,71.18
2023-04-09T08:04:39.037Z,68.20
2023-04-09T08:07:07.088Z,70.23
2023-04-09T08:09:34.999Z,64.15
2023-04-09T08:12:03.676Z,62.90
2023-04-09T08:14:32.315Z,63.26
2023-04-09T08:17:00.784Z,69.44
2023-04-09T08:19:29.081Z,64.73
2023-04-09T08:21:57.110Z,60.20
2023-04-09T08:24:25.146Z,67.26
2023-04-09T08:26:53.575Z,61.26
2023-04-09T08:29:21.688Z,61.55
2023-04-09T08:31:49.705Z,61.26
2023-04-09T08:34:21.243Z,56.93
2023-04-09T08:36:50.293Z,61.20
2023-04-09T08:39:21.801Z,64.78
2023-04-09T08:41:52.295Z,58.70
2023-04-09T08:44:22.259Z,57.66
2023-04-09T08:46:51.267Z,58.17
2023-04-09T08:49:19.180Z,61.41
2023-04-09T08:51:48.807Z,60.32
2023-04-09T08:54:19.133Z,60.59
2023-04-09T08:56:48.162Z,62.85
2023-04-09T08:59:18.606Z,62.18
2023-04-09T09:01:49.602Z,60.11
2023-04-09T09:04:18.032Z,60.39
2023-04-09T09:06:46.092Z,61.82
2023-04-09T09:09:16.310Z,57.88
2023-04-09T09:11:50.414Z,56.42
2023-04-09T09:14:19.636Z,57.20
2023-04-09T09:16:57.903Z,62.26
2023-04-09T09:19:26.494Z,65.49
2023-04-09T09:21:59.094Z,57.39
2023-04-09T09:24:27.091Z,59.00
2023-04-09T09:26:55.976Z,60.72
2023-04-09T09:29:23.906Z,59.80
2023-04-09T09:31:53.339Z,60.21
2023-04-09T09:34:23.694Z,54.35
2023-04-09T09:36:51.659Z,57.98
2023-04-09T09:39:19.597Z,60.14
2023-04-09T09:41:48.994Z,60.48
2023-04-09T09:44:33.133Z,64.18
2023-04-09T09:47:04.043Z,61.02
2023-04-09T09:49:32.013Z,59.51
2023-04-09T09:52:03.018Z,56.14
2023-04-09T09:54:36.569Z,61.09
2023-04-09T09:57:06.758Z,61.78
2023-04-09T09:59:38.704Z,63.46
2023-04-09T10:02:23.310Z,61.26
2023-04-09T10:04:53.119Z,58.99
2023-04-09T10:07:22.417Z,60.15
2023-04-09T10:09:52.449Z,59.08
2023-04-09T10:12:25.523Z,59.28
2023-04-09T10:14:55.439Z,58.65
2023-04-09T10:17:23.872Z,60.50
2023-04-09T10:20:05.248Z,58.80
2023-04-09T10:22:36.638Z,59.55
2023-04-09T10:25:05.312Z,59.15
2023-04-09T10:27:33.609Z,60.24
2023-04-09T10:30:02.009Z,58.72
2023-04-09T10:32:35.309Z,60.81
2023-04-09T10:35:04.356Z,63.09
2023-04-09T10:37:32.282Z,62.55
2023-04-09T10:40:00.237Z,60.09
2023-04-09T10:42:40.939Z,58.41
2023-04-09T10:45:14.648Z,56.95
2023-04-09T10:47:44.320Z,59.16
2023-04-09T10:50:16.802Z,57.54
2023-04-09T10:52:45.344Z,57.40
2023-04-09T10:55:33.537Z,60.50
2023-04-09T10:58:03.120Z,59.46
2023-04-09T11:00:31.185Z,57.20
2023-04-09T11:03:21.972Z,55.85
2023-04-09T11:06:01.975Z,55.72
2023-04-09T11:08:31.743Z,55.54
2023-04-09T11:11:01.725Z,53.21
2023-04-09T11:13:31.466Z,52.34
2023-04-09T11:16:03.524Z,56.62
2023-04-09T11:18:34.096Z,53.32
2023-04-09T11:21:04.371Z,54.32
2023-04-09T11:23:33.242Z,59.21
2023-04-09T11:26:02.239Z,60.35
2023-04-09T11:28:30.520Z,52.75
2023-04-09T11:30:58.436Z,52.43
2023-04-09T11:33:33.548Z,54.64
2023-04-09T11:36:02.864Z,54.80
2023-04-09T11:38:31.860Z,58.37
2023-04-09T11:40:59.798Z,52.26
2023-04-09T11:43:28.008Z,51.75
2023-04-09T11:45:57.610Z,52.62
2023-04-09T11:48:25.817Z,46.26
2023-04-09T11:50:54.273Z,46.28
2023-04-09T11:53:23.225Z,51.00
2023-04-09T11:55:52.385Z,48.94
2023-04-09T11:58:25.776Z,47.88
2023-04-09T12:01:00.443Z,52.78
2023-04-09T12:03:31.137Z,52.93
2023-04-09T12:06:03.667Z,54.66
2023-04-09T12:08:35.232Z,57.28
2023-04-09T12:11:13.658Z,55.29
2023-04-09T12:13:45.275Z,55.65
2023-04-09T12:16:13.763Z,49.17
2023-04-09T12:18:42.358Z,52.97
2023-04-09T12:21:10.652Z,51.71
2023-04-09T12:23:38.616Z,47.52
2023-04-09T12:26:06.959Z,49.72
2023-04-09T12:28:34.932Z,50.93
2023-04-09T12:31:03.749Z,49.04
2023-04-09T12:33:32.604Z,51.69
2023-04-09T12:36:00.906Z,49.70
2023-04-09T12:38:28.884Z,49.36
2023-04-09T12:40:57.194Z,49.71
2023-04-09T12:43:25.172Z,48.36
2023-04-09T12:45:53.346Z,51.32
2023-04-09T12:48:21.644Z,52.46
2023-04-09T12:50:49.649Z,54.60
2023-04-09T12:53:17.677Z,52.06
2023-04-09T12:55:45.935Z,52.35
2023-04-09T12:58:13.839Z,51.25
2023-04-09T13:00:42.102Z,52.84
2023-04-09T13:03:10.826Z,51.72
2023-04-09T13:05:38.846Z,51.67
2023-04-09T13:08:07.054Z,53.96
2023-04-09T13:10:36.685Z,52.26
2023-04-09T13:13:04.694Z,52.70
2023-04-09T13:15:32.561Z,54.49
2023-04-09T13:18:01.066Z,53.57
2023-04-09T13:20:29.199Z,52.44
2023-04-09T13:22:57.645Z,53.65
2023-04-09T13:25:26.295Z,55.35
2023-04-09T13:27:54.197Z,57.24
2023-04-09T13:30:22.936Z,56.94
2023-04-09T13:32:51.230Z,55.27
2023-04-09T13:35:19.403Z,55.70
2023-04-09T13:37:47.483Z,53.38
2023-04-09T13:40:16.617Z,55.84
2023-04-09T13:42:44.531Z,56.89
2023-04-09T13:45:12.487Z,56.51
2023-04-09T13:47:41.362Z,58.14
2023-04-09T13:50:10.545Z,54.61
2023-04-09T13:52:38.534Z,52.59
2023-04-09T13:55:07.816Z,56.91
2023-04-09T13:57:35.943Z,56.68
2023-04-09T14:00:05.959Z,52.64
2023-04-09T14:02:34.745Z,52.93
2023-04-09T14:05:04.222Z,51.03
2023-04-09T14:07:32.385Z,52.28
2023-04-09T14:10:00.670Z,48.28
2023-04-09T14:12:28.550Z,50.58
2023-04-09T14:14:56.521Z,51.14
2023-04-09T14:17:25.017Z,53.63
2023-04-09T14:19:52.930Z,51.71
2023-04-09T14:22:20.976Z,48.74
2023-04-09T14:24:49.223Z,51.52
2023-04-09T14:27:17.588Z,53.45
2023-04-09T14:29:45.672Z,50.56
2023-04-09T14:32:14.024Z,54.22
2023-04-09T14:34:41.963Z,51.16
2023-04-09T14:37:09.906Z,51.44
2023-04-09T14:39:38.245Z,50.12
2023-04-09T14:42:06.263Z,51.15
2023-04-09T14:44:34.632Z,50.30
2023-04-09T14:47:02.943Z,48.21
2023-04-09T14:49:30.905Z,46.54
2023-04-09T14:51:59.242Z,51.39
2023-04-09T14:54:29.107Z,50.15
2023-04-09T14:56:58.603Z,51.26
2023-04-09T14:59:27.399Z,49.85
2023-04-09T15:01:55.899Z,49.78
2023-04-09T15:04:24.190Z,50.89
2023-04-09T15:06:52.416Z,47.70
2023-04-09T15:09:20.808Z,50.57
2023-04-09T15:11:48.731Z,48.91
2023-04-09T15:14:16.803Z,52.23
2023-04-09T15:16:45.195Z,53.93
2023-04-09T15:19:13.213Z,52.28
2023-04-09T15:21:41.448Z,50.22
2023-04-09T15:24:09.741Z,51.72
2023-04-09T15:26:37.676Z,51.27
2023-04-09T15:29:07.998Z,54.96
2023-04-09T15:31:36.648Z,53.50
2023-04-09T15:34:05.342Z,55.34
2023-04-09T15:36:33.337Z,54.98
2023-04-09T15:39:04.594Z,54.72
2023-04-09T15:41:33.990Z,52.75
2023-04-09T15:44:02.312Z,53.29
2023-04-09T15:46:30.611Z,53.89
2023-04-09T15:48:58.485Z,54.50
2023-04-09T15:51:27.222Z,52.68
2023-04-09T15:53:55.205Z,53.32
2023-04-09T15:56:23.349Z,51.60
2023-04-09T15:58:51.914Z,53.90
2023-04-09T16:01:20.055Z,55.69
2023-04-09T16:03:52.437Z,57.03
2023-04-09T16:06:21.277Z,57.06
2023-04-09T16:08:49.824Z,53.38
2023-04-09T16:11:17.943Z,56.46
2023-04-09T16:13:46.446Z,56.56
2023-04-09T16:16:14.869Z,53.68
2023-04-09T16:18:44.727Z,54.37
2023-04-09T16:21:14.712Z,56.22
2023-04-09T16:23:43.017Z,57.73
2023-04-09T16:26:11.230Z,56.43
2023-04-09T16:28:39.353Z,56.75
2023-04-09T16:31:07.780Z,57.50
2023-04-09T16:33:35.928Z,58.26
2023-04-09T16:36:04.077Z,57.35
2023-04-09T16:38:32.550Z,54.79
2023-04-09T16:41:00.608Z,57.44
2023-04-09T16:43:30.489Z,57.82
2023-04-09T16:46:00.770Z,57.19
2023-04-09T16:48:28.763Z,58.67
2023-04-09T16:50:56.687Z,57.33
2023-04-09T16:53:24.910Z,59.63
2023-04-09T16:55:52.873Z,59.14
2023-04-09T16:58:20.798Z,57.91
2023-04-09T17:00:50.716Z,59.31
2023-04-09T17:03:19.898Z,61.66
2023-04-09T17:05:51.253Z,62.32
2023-04-09T17:08:24.521Z,62.16
2023-04-09T17:10:54.974Z,61.26
2023-04-09T17:13:22.981Z,61.23
2023-04-09T17:15:52.464Z,61.71
2023-04-09T17:18:20.936Z,60.88
2023-04-09T17:20:50.833Z,60.88
2023-04-09T17:23:18.817Z,62.67
2023-04-09T17:25:47.397Z,62.55
2023-04-09T17:28:16.325Z,62.87
2023-04-09T17:30:46.281Z,64.21
2023-04-09T17:33:14.704Z,62.30
2023-04-09T17:35:43.465Z,62.86
2023-04-09T17:38:14.253Z,62.38
2023-04-09T17:40:42.626Z,62.85
2023-04-09T17:43:10.582Z,63.92
2023-04-09T17:45:38.499Z,62.69
2023-04-09T17:48:06.983Z,64.04
2023-04-09T17:50:38.052Z,63.83
2023-04-09T17:53:06.402Z,65.68
2023-04-09T17:55:34.472Z,65.82
2023-04-09T17:58:03.352Z,66.10
2023-04-09T18:00:31.903Z,65.46
2023-04-09T18:03:00.608Z,63.93
2023-04-09T18:05:29.135Z,64.06
2023-04-09T18:07:57.552Z,64.68
2023-04-09T18:10:26.340Z,64.94
2023-04-09T18:12:54.440Z,64.30
2023-04-09T18:15:22.703Z,65.06
2023-04-09T18:17:51.684Z,65.74
2023-04-09T18:20:20.870Z,67.52
2023-04-09T18:22:48.974Z,67.59
2023-04-09T18:25:17.335Z,70.48
2023-04-09T18:27:45.517Z,71.43
2023-04-09T18:30:13.584Z,72.34
2023-04-09T18:32:42.185Z,74.16
2023-04-09T18:35:10.623Z,74.48
2023-04-09T18:37:38.914Z,75.51
2023-04-09T18:40:12.176Z,75.42
2023-04-09T18:42:40.134Z,75.52
2023-04-09T18:45:08.938Z,78.40
2023-04-09T18:47:37.643Z,80.24
2023-04-09T18:50:06.678Z,79.02
2023-04-09T18:52:38.542Z,79.75
2023-04-09T18:55:06.888Z,80.78
2023-04-09T18:57:36.620Z,80.14
2023-04-09T19:00:04.985Z,80.18
2023-04-09T19:02:33.209Z,80.17
2023-04-09T19:05:02.277Z,80.99
2023-04-09T19:07:30.263Z,81.43
2023-04-09T19:09:58.706Z,81.80
2023-04-09T19:12:30.316Z,80.66
2023-04-09T19:15:01.142Z,81.36
2023-04-09T19:17:29.569Z,83.47
2023-04-09T19:19:57.499Z,82.57
2023-04-09T19:22:25.631Z,84.92
2023-04-09T19:24:54.029Z,83.42
2023-04-09T19:27:21.997Z,84.11
2023-04-09T19:29:49.964Z,86.45
2023-04-09T19:32:18.240Z,88.63
2023-04-09T19:34:46.320Z,90.07
2023-04-09T19:37:15.381Z,91.50
2023-04-09T19:39:43.648Z,90.94
2023-04-09T19:42:11.587Z,89.16
2023-04-09T19:44:39.703Z,91.04
2023-04-09T19:47:08.077Z,92.41
2023-04-09T19:49:36.092Z,92.04
2023-04-09T19:52:07.017Z,95.78
2023-04-09T19:54:36.007Z,99.07
2023-04-09T19:57:04.153Z,98.61
2023-04-09T19:59:36.440Z,96.71
2023-04-09T20:02:04.847Z,93.56
2023-04-09T20:04:33.206Z,93.09
2023-04-09T20:07:01.559Z,90.20
2023-04-09T20:09:29.490Z,88.92
2023-04-09T20:12:04.471Z,89.08
2023-04-09T20:14:32.460Z,86.33
2023-04-09T20:17:01.035Z,86.63
2023-04-09T20:19:29.026Z,87.27
2023-04-09T20:21:57.311Z,90.73
2023-04-09T20:24:27.340Z,91.80
2023-04-09T20:26:56.363Z,93.03
2023-04-09T20:29:24.395Z,92.39
2023-04-09T20:31:52.962Z,93.86
2023-04-09T20:34:26.638Z,96.30
2023-04-09T20:36:55.700Z,94.85
2023-04-09T20:39:27.313Z,96.10
2023-04-09T20:41:56.920Z,97.80
2023-04-09T20:44:25.009Z,94.23
2023-04-09T20:46:52.922Z,94.90
2023-04-09T20:49:21.294Z,99.43
2023-04-09T20:51:50.064Z,95.67
2023-04-09T20:54:18.293Z,96.31
2023-04-09T20:56:46.659Z,96.61
2023-04-09T20:59:15.324Z,97.54
2023-04-09T21:01:45.138Z,99.00
2023-04-09T21:04:14.026Z,97.81
2023-04-09T21:06:42.128Z,97.15
2023-04-09T21:09:10.270Z,99.41
2023-04-09T21:11:38.582Z,97.23
2023-04-09T21:14:07.216Z,96.47
2023-04-09T21:16:35.674Z,95.20
2023-04-09T21:19:07.344Z,88.07
2023-04-09T21:21:35.594Z,86.28
2023-04-09T21:24:04.213Z,87.17
2023-04-09T21:26:45.277Z,92.91
2023-04-09T21:29:17.330Z,93.81
2023-04-09T21:31:45.332Z,89.75
2023-04-09T21:34:13.210Z,94.27
2023-04-09T21:36:41.590Z,95.09
2023-04-09T21:39:09.496Z,95.91
2023-04-09T21:41:37.364Z,100.00
2023-04-09T21:44:08.692Z,99.64
2023-04-09T21:46:37.511Z,100.00
2023-04-09T21:49:06.000Z,100.00
2023-04-09T21:51:33.856Z,100.00
2023-04-09T21:54:11.337Z,99.92
2023-04-09T21:56:40.077Z,98.63
2023-04-09T21:59:08.028Z,98.43
2023-04-09T22:01:36.124Z,99.67
2023-04-09T22:04:04.774Z,100.00
2023-04-09T22:06:33.122Z,99.96
2023-04-09T22:09:02.178Z,98.47
2023-04-09T22:11:30.789Z,99.22
2023-04-09T22:13:58.849Z,99.34
2023-04-09T22:16:27.270Z,96.89
2023-04-09T22:18:56.564Z,94.35
2023-04-09T22:21:25.495Z,92.72
2023-04-09T22:23:53.424Z,95.37
2023-04-09T22:26:22.187Z,96.09
2023-04-09T22:28:50.546Z,97.18
2023-04-09T22:31:18.554Z,97.55
2023-04-09T22:33:46.872Z,95.71
2023-04-09T22:36:14.874Z,91.23
2023-04-09T22:38:42.807Z,93.45
2023-04-09T22:41:11.098Z,89.95
2023-04-09T22:43:38.983Z,89.67
2023-04-09T22:46:07.437Z,90.98
2023-04-09T22:48:40.812Z,93.62
2023-04-09T22:51:12.988Z,93.81
2023-04-09T22:53:41.625Z,93.72
2023-04-09T22:56:09.871Z,95.13
2023-04-09T22:58:38.339Z,93.56
2023-04-09T23:01:07.053Z,93.63
2023-04-09T23:03:35.194Z,92.88
2023-04-09T23:06:03.391Z,90.81
2023-04-09T23:08:31.911Z,93.02
2023-04-09T23:10:59.865Z,92.27
2023-04-09T23:13:27.759Z,92.00
2023-04-09T23:15:56.799Z,93.64
2023-04-09T23:18:24.954Z,94.49
2023-04-09T23:20:52.974Z,95.70
2023-04-09T23:23:21.194Z,95.69
2023-04-09T23:25:49.083Z,94.26
2023-04-09T23:28:16.991Z,93.84
2023-04-09T23:30:45.225Z,93.72
2023-04-09T23:33:13.170Z,94.46
2023-04-09T23:35:41.233Z,93.53
2023-04-09T23:38:09.697Z,93.74
2023-04-09T23:40:37.605Z,94.90
2023-04-09T23:43:05.663Z,94.77
2023-04-09T23:45:33.902Z,95.56
2023-04-09T23:48:03.504Z,95.85
2023-04-09T23:50:31.557Z,95.91
2023-04-09T23:53:03.990Z,94.68
2023-04-09T23:55:33.557Z,89.87
2023-04-09T23:58:01.788Z,90.62
